sensor_id;sensor_type;location;lat;lon;timestamp;pressure;altitude;pressure_sealevel;temperature
56286;BMP180;42191;47.562;9.686;2022-07-23T00:00:35;97130.00;;;27.00
56286;BMP180;42191;47.562;9.686;2022-07-23T00:03:01;97135.00;;;27.00
56286;BMP180;42191;47.562;9.686;2022-07-23T00:05:28;97130.00;;;27.00
56286;BMP180;42191;47.562;9.686;2022-07-23T00:07:54;97123.00;;;27.00
56286;BMP180;42191;47.562;9.686;2022-07-23T00:10:20;97115.00;;;26.90
56286;BMP180;42191;47.562;9.686;2022-07-23T00:12:46;97116.00;;;26.90
56286;BMP180;42191;47.562;9.686;2022-07-23T00:15:12;97124.00;;;26.90
56286;BMP180;42191;47.562;9.686;2022-07-23T00:17:38;97137.00;;;26.90
56286;BMP180;42191;47.562;9.686;2022-07-23T00:20:05;97165.00;;;26.90
56286;BMP180;42191;47.562;9.686;2022-07-23T00:22:31;97185.00;;;26.80
56286;BMP180;42191;47.562;9.686;2022-07-23T00:24:57;97209.00;;;26.80
56286;BMP180;42191;47.562;9.686;2022-07-23T00:27:23;97204.00;;;26.80
56286;BMP180;42191;47.562;9.686;2022-07-23T00:29:50;97199.00;;;26.80
56286;BMP180;42191;47.562;9.686;2022-07-23T00:32:16;97184.00;;;26.70
56286;BMP180;42191;47.562;9.686;2022-07-23T00:34:42;97170.00;;;26.70
56286;BMP180;42191;47.562;9.686;2022-07-23T00:37:08;97146.00;;;26.70
56286;BMP180;42191;47.562;9.686;2022-07-23T00:39:34;97132.00;;;26.60
56286;BMP180;42191;47.562;9.686;2022-07-23T00:42:00;97137.00;;;26.60
56286;BMP180;42191;47.562;9.686;2022-07-23T00:44:27;97152.00;;;26.50
56286;BMP180;42191;47.562;9.686;2022-07-23T00:46:55;97154.00;;;26.50
56286;BMP180;42191;47.562;9.686;2022-07-23T00:49:24;97135.00;;;26.40
56286;BMP180;42191;47.562;9.686;2022-07-23T00:51:50;97105.00;;;26.40
56286;BMP180;42191;47.562;9.686;2022-07-23T00:54:18;97093.00;;;26.30
56286;BMP180;42191;47.562;9.686;2022-07-23T00:56:46;97077.00;;;26.20
56286;BMP180;42191;47.562;9.686;2022-07-23T00:59:12;97078.00;;;26.10
56286;BMP180;42191;47.562;9.686;2022-07-23T01:01:39;97100.00;;;26.10
56286;BMP180;42191;47.562;9.686;2022-07-23T01:04:05;97156.00;;;26.00
56286;BMP180;42191;47.562;9.686;2022-07-23T01:06:36;97210.00;;;25.90
56286;BMP180;42191;47.562;9.686;2022-07-23T01:09:04;97236.00;;;25.70
56286;BMP180;42191;47.562;9.686;2022-07-23T01:11:31;97237.00;;;25.60
56286;BMP180;42191;47.562;9.686;2022-07-23T01:13:58;97223.00;;;25.40
56286;BMP180;42191;47.562;9.686;2022-07-23T01:16:24;97202.00;;;25.20
56286;BMP180;42191;47.562;9.686;2022-07-23T01:18:50;97167.00;;;25.00
56286;BMP180;42191;47.562;9.686;2022-07-23T01:21:18;97126.00;;;24.90
56286;BMP180;42191;47.562;9.686;2022-07-23T01:23:44;97085.00;;;24.80
56286;BMP180;42191;47.562;9.686;2022-07-23T01:26:11;97042.00;;;24.70
56286;BMP180;42191;47.562;9.686;2022-07-23T01:28:37;97001.00;;;24.60
56286;BMP180;42191;47.562;9.686;2022-07-23T01:31:03;96969.00;;;24.50
56286;BMP180;42191;47.562;9.686;2022-07-23T01:33:29;96943.00;;;24.40
56286;BMP180;42191;47.562;9.686;2022-07-23T01:35:55;96942.00;;;24.30
56286;BMP180;42191;47.562;9.686;2022-07-23T01:38:21;96918.00;;;24.20
56286;BMP180;42191;47.562;9.686;2022-07-23T01:40:47;96917.00;;;24.10
56286;BMP180;42191;47.562;9.686;2022-07-23T01:43:13;96918.00;;;24.00
56286;BMP180;42191;47.562;9.686;2022-07-23T01:45:39;96923.00;;;23.90
56286;BMP180;42191;47.562;9.686;2022-07-23T01:48:06;96931.00;;;23.90
56286;BMP180;42191;47.562;9.686;2022-07-23T01:50:32;96919.00;;;23.80
56286;BMP180;42191;47.562;9.686;2022-07-23T01:52:58;96916.00;;;23.80
56286;BMP180;42191;47.562;9.686;2022-07-23T01:55:24;96920.00;;;23.80
56286;BMP180;42191;47.562;9.686;2022-07-23T01:57:50;96930.00;;;23.70
56286;BMP180;42191;47.562;9.686;2022-07-23T02:00:16;96940.00;;;23.80
56286;BMP180;42191;47.562;9.686;2022-07-23T02:02:43;96947.00;;;23.80
56286;BMP180;42191;47.562;9.686;2022-07-23T02:05:09;96952.00;;;23.80
56286;BMP180;42191;47.562;9.686;2022-07-23T02:07:35;96967.00;;;23.80
56286;BMP180;42191;47.562;9.686;2022-07-23T02:10:01;96950.00;;;23.80
56286;BMP180;42191;47.562;9.686;2022-07-23T02:12:27;96952.00;;;23.90
56286;BMP180;42191;47.562;9.686;2022-07-23T02:14:53;96939.00;;;23.90
56286;BMP180;42191;47.562;9.686;2022-07-23T02:17:19;96938.00;;;24.00
56286;BMP180;42191;47.562;9.686;2022-07-23T02:19:45;96928.00;;;24.10
56286;BMP180;42191;47.562;9.686;2022-07-23T02:22:11;96930.00;;;24.20
56286;BMP180;42191;47.562;9.686;2022-07-23T02:24:37;96953.00;;;24.20
56286;BMP180;42191;47.562;9.686;2022-07-23T02:27:03;96954.00;;;24.30
56286;BMP180;42191;47.562;9.686;2022-07-23T02:29:29;96963.00;;;24.30
56286;BMP180;42191;47.562;9.686;2022-07-23T02:31:55;96957.00;;;24.30
56286;BMP180;42191;47.562;9.686;2022-07-23T02:34:22;96947.00;;;24.40
56286;BMP180;42191;47.562;9.686;2022-07-23T02:36:48;96943.00;;;24.40
56286;BMP180;42191;47.562;9.686;2022-07-23T02:39:14;96935.00;;;24.40
56286;BMP180;42191;47.562;9.686;2022-07-23T02:41:40;96947.00;;;24.40
56286;BMP180;42191;47.562;9.686;2022-07-23T02:44:07;96946.00;;;24.50
56286;BMP180;42191;47.562;9.686;2022-07-23T02:46:33;96958.00;;;24.50
56286;BMP180;42191;47.562;9.686;2022-07-23T02:48:59;96958.00;;;24.50
56286;BMP180;42191;47.562;9.686;2022-07-23T02:51:25;96959.00;;;24.50
56286;BMP180;42191;47.562;9.686;2022-07-23T02:53:51;96960.00;;;24.50
56286;BMP180;42191;47.562;9.686;2022-07-23T02:56:17;96958.00;;;24.50
56286;BMP180;42191;47.562;9.686;2022-07-23T02:58:43;96938.00;;;24.50
56286;BMP180;42191;47.562;9.686;2022-07-23T03:01:09;96928.00;;;24.50
56286;BMP180;42191;47.562;9.686;2022-07-23T03:03:35;96922.00;;;24.50
56286;BMP180;42191;47.562;9.686;2022-07-23T03:06:01;96914.00;;;24.50
56286;BMP180;42191;47.562;9.686;2022-07-23T03:08:27;96904.00;;;24.50
56286;BMP180;42191;47.562;9.686;2022-07-23T03:10:53;96907.00;;;24.60
56286;BMP180;42191;47.562;9.686;2022-07-23T03:13:20;96915.00;;;24.60
56286;BMP180;42191;47.562;9.686;2022-07-23T03:15:46;96896.00;;;24.60
56286;BMP180;42191;47.562;9.686;2022-07-23T03:18:12;96880.00;;;24.60
56286;BMP180;42191;47.562;9.686;2022-07-23T03:20:38;96883.00;;;24.60
56286;BMP180;42191;47.562;9.686;2022-07-23T03:23:04;96891.00;;;24.60
56286;BMP180;42191;47.562;9.686;2022-07-23T03:25:30;96884.00;;;24.60
56286;BMP180;42191;47.562;9.686;2022-07-23T03:27:57;96897.00;;;24.60
56286;BMP180;42191;47.562;9.686;2022-07-23T03:30:23;96913.00;;;24.60
56286;BMP180;42191;47.562;9.686;2022-07-23T03:32:49;96915.00;;;24.60
56286;BMP180;42191;47.562;9.686;2022-07-23T03:35:15;96920.00;;;24.60
56286;BMP180;42191;47.562;9.686;2022-07-23T03:37:41;96931.00;;;24.60
56286;BMP180;42191;47.562;9.686;2022-07-23T03:40:08;96932.00;;;24.60
56286;BMP180;42191;47.562;9.686;2022-07-23T03:42:34;96944.00;;;24.70
56286;BMP180;42191;47.562;9.686;2022-07-23T03:45:00;96931.00;;;24.70
56286;BMP180;42191;47.562;9.686;2022-07-23T03:47:27;96935.00;;;24.70
56286;BMP180;42191;47.562;9.686;2022-07-23T03:49:53;96937.00;;;24.80
56286;BMP180;42191;47.562;9.686;2022-07-23T03:52:19;96937.00;;;24.80
56286;BMP180;42191;47.562;9.686;2022-07-23T03:54:45;96946.00;;;24.80
56286;BMP180;42191;47.562;9.686;2022-07-23T03:57:11;96959.00;;;24.90
56286;BMP180;42191;47.562;9.686;2022-07-23T03:59:37;96958.00;;;24.90
56286;BMP180;42191;47.562;9.686;2022-07-23T04:02:03;96952.00;;;24.90
56286;BMP180;42191;47.562;9.686;2022-07-23T04:04:29;96950.00;;;25.00
56286;BMP180;42191;47.562;9.686;2022-07-23T04:06:55;96942.00;;;25.00
56286;BMP180;42191;47.562;9.686;2022-07-23T04:09:21;96933.00;;;25.00
56286;BMP180;42191;47.562;9.686;2022-07-23T04:11:48;96942.00;;;25.10
56286;BMP180;42191;47.562;9.686;2022-07-23T04:14:14;96981.00;;;25.10
56286;BMP180;42191;47.562;9.686;2022-07-23T04:16:40;97012.00;;;25.10
56286;BMP180;42191;47.562;9.686;2022-07-23T04:19:06;97002.00;;;25.10
56286;BMP180;42191;47.562;9.686;2022-07-23T04:21:32;96987.00;;;25.20
56286;BMP180;42191;47.562;9.686;2022-07-23T04:23:58;97001.00;;;25.20
56286;BMP180;42191;47.562;9.686;2022-07-23T04:26:24;97052.00;;;25.20
56286;BMP180;42191;47.562;9.686;2022-07-23T04:28:50;97038.00;;;25.20
56286;BMP180;42191;47.562;9.686;2022-07-23T04:31:16;97005.00;;;25.20
56286;BMP180;42191;47.562;9.686;2022-07-23T04:33:42;97035.00;;;25.30
56286;BMP180;42191;47.562;9.686;2022-07-23T04:36:08;97058.00;;;25.30
56286;BMP180;42191;47.562;9.686;2022-07-23T04:38:34;97033.00;;;25.30
56286;BMP180;42191;47.562;9.686;2022-07-23T04:41:00;97032.00;;;25.30
56286;BMP180;42191;47.562;9.686;2022-07-23T04:43:27;96999.00;;;25.30
56286;BMP180;42191;47.562;9.686;2022-07-23T04:45:54;97003.00;;;25.30
56286;BMP180;42191;47.562;9.686;2022-07-23T04:48:20;96984.00;;;25.30
56286;BMP180;42191;47.562;9.686;2022-07-23T04:50:46;96973.00;;;25.30
56286;BMP180;42191;47.562;9.686;2022-07-23T04:53:12;96965.00;;;25.30
56286;BMP180;42191;47.562;9.686;2022-07-23T04:55:38;96969.00;;;25.30
56286;BMP180;42191;47.562;9.686;2022-07-23T04:58:04;96985.00;;;25.20
56286;BMP180;42191;47.562;9.686;2022-07-23T05:00:30;96970.00;;;25.30
56286;BMP180;42191;47.562;9.686;2022-07-23T05:02:56;96967.00;;;25.20
56286;BMP180;42191;47.562;9.686;2022-07-23T05:05:23;96981.00;;;25.30
56286;BMP180;42191;47.562;9.686;2022-07-23T05:07:49;96999.00;;;25.30
56286;BMP180;42191;47.562;9.686;2022-07-23T05:10:15;97014.00;;;25.30
56286;BMP180;42191;47.562;9.686;2022-07-23T05:12:41;97015.00;;;25.30
56286;BMP180;42191;47.562;9.686;2022-07-23T05:15:07;97015.00;;;25.20
56286;BMP180;42191;47.562;9.686;2022-07-23T05:17:33;97024.00;;;25.20
56286;BMP180;42191;47.562;9.686;2022-07-23T05:19:59;97018.00;;;25.20
56286;BMP180;42191;47.562;9.686;2022-07-23T05:22:25;97031.00;;;25.20
56286;BMP180;42191;47.562;9.686;2022-07-23T05:24:51;97025.00;;;25.20
56286;BMP180;42191;47.562;9.686;2022-07-23T05:27:17;97033.00;;;25.20
56286;BMP180;42191;47.562;9.686;2022-07-23T05:29:44;97032.00;;;25.10
56286;BMP180;42191;47.562;9.686;2022-07-23T05:32:10;97039.00;;;25.20
56286;BMP180;42191;47.562;9.686;2022-07-23T05:34:36;97046.00;;;25.20
56286;BMP180;42191;47.562;9.686;2022-07-23T05:37:02;97046.00;;;25.20
56286;BMP180;42191;47.562;9.686;2022-07-23T05:39:28;97058.00;;;25.30
56286;BMP180;42191;47.562;9.686;2022-07-23T05:41:54;97060.00;;;25.30
56286;BMP180;42191;47.562;9.686;2022-07-23T05:44:20;97060.00;;;25.40
56286;BMP180;42191;47.562;9.686;2022-07-23T05:46:46;97074.00;;;25.40
56286;BMP180;42191;47.562;9.686;2022-07-23T05:49:12;97083.00;;;25.40
56286;BMP180;42191;47.562;9.686;2022-07-23T05:51:38;97086.00;;;25.40
56286;BMP180;42191;47.562;9.686;2022-07-23T05:54:04;97101.00;;;25.50
56286;BMP180;42191;47.562;9.686;2022-07-23T05:56:31;97105.00;;;25.50
56286;BMP180;42191;47.562;9.686;2022-07-23T05:58:57;97103.00;;;25.50
56286;BMP180;42191;47.562;9.686;2022-07-23T06:01:23;97095.00;;;25.50
56286;BMP180;42191;47.562;9.686;2022-07-23T06:03:49;97099.00;;;25.60
56286;BMP180;42191;47.562;9.686;2022-07-23T06:06:15;97103.00;;;25.70
56286;BMP180;42191;47.562;9.686;2022-07-23T06:08:41;97114.00;;;25.70
56286;BMP180;42191;47.562;9.686;2022-07-23T06:11:07;97124.00;;;25.80
56286;BMP180;42191;47.562;9.686;2022-07-23T06:13:33;97122.00;;;25.90
56286;BMP180;42191;47.562;9.686;2022-07-23T06:15:59;97121.00;;;25.90
56286;BMP180;42191;47.562;9.686;2022-07-23T06:18:25;97124.00;;;25.90
56286;BMP180;42191;47.562;9.686;2022-07-23T06:20:51;97119.00;;;25.90
56286;BMP180;42191;47.562;9.686;2022-07-23T06:23:17;97123.00;;;26.00
56286;BMP180;42191;47.562;9.686;2022-07-23T06:25:43;97129.00;;;26.00
56286;BMP180;42191;47.562;9.686;2022-07-23T06:28:09;97130.00;;;26.00
56286;BMP180;42191;47.562;9.686;2022-07-23T06:30:36;97130.00;;;26.00
56286;BMP180;42191;47.562;9.686;2022-07-23T06:33:02;97123.00;;;26.10
56286;BMP180;42191;47.562;9.686;2022-07-23T06:35:28;97132.00;;;26.10
56286;BMP180;42191;47.562;9.686;2022-07-23T06:37:54;97129.00;;;26.10
56286;BMP180;42191;47.562;9.686;2022-07-23T06:40:20;97124.00;;;26.10
56286;BMP180;42191;47.562;9.686;2022-07-23T06:42:47;97124.00;;;26.20
56286;BMP180;42191;47.562;9.686;2022-07-23T06:45:13;97123.00;;;26.20
56286;BMP180;42191;47.562;9.686;2022-07-23T06:47:39;97132.00;;;26.30
56286;BMP180;42191;47.562;9.686;2022-07-23T06:50:06;97125.00;;;26.30
56286;BMP180;42191;47.562;9.686;2022-07-23T06:52:33;97131.00;;;26.40
56286;BMP180;42191;47.562;9.686;2022-07-23T06:54:59;97122.00;;;26.40
56286;BMP180;42191;47.562;9.686;2022-07-23T06:57:25;97104.00;;;26.40
56286;BMP180;42191;47.562;9.686;2022-07-23T06:59:52;97099.00;;;26.40
56286;BMP180;42191;47.562;9.686;2022-07-23T07:02:21;97094.00;;;26.50
56286;BMP180;42191;47.562;9.686;2022-07-23T07:04:47;97098.00;;;26.50
56286;BMP180;42191;47.562;9.686;2022-07-23T07:07:13;97106.00;;;26.50
56286;BMP180;42191;47.562;9.686;2022-07-23T07:09:39;97107.00;;;26.60
56286;BMP180;42191;47.562;9.686;2022-07-23T07:12:05;97113.00;;;26.60
56286;BMP180;42191;47.562;9.686;2022-07-23T07:14:34;97131.00;;;26.60
56286;BMP180;42191;47.562;9.686;2022-07-23T07:17:00;97145.00;;;26.60
56286;BMP180;42191;47.562;9.686;2022-07-23T07:19:26;97147.00;;;26.60
56286;BMP180;42191;47.562;9.686;2022-07-23T07:21:52;97146.00;;;26.70
56286;BMP180;42191;47.562;9.686;2022-07-23T07:24:18;97160.00;;;26.70
56286;BMP180;42191;47.562;9.686;2022-07-23T07:26:44;97171.00;;;26.80
56286;BMP180;42191;47.562;9.686;2022-07-23T07:29:10;97163.00;;;26.80
56286;BMP180;42191;47.562;9.686;2022-07-23T07:31:37;97169.00;;;26.90
56286;BMP180;42191;47.562;9.686;2022-07-23T07:34:03;97167.00;;;26.90
56286;BMP180;42191;47.562;9.686;2022-07-23T07:36:29;97170.00;;;27.00
56286;BMP180;42191;47.562;9.686;2022-07-23T07:38:55;97162.00;;;27.00
56286;BMP180;42191;47.562;9.686;2022-07-23T07:41:21;97172.00;;;27.00
56286;BMP180;42191;47.562;9.686;2022-07-23T07:43:50;97178.00;;;27.00
56286;BMP180;42191;47.562;9.686;2022-07-23T07:46:16;97178.00;;;27.00
56286;BMP180;42191;47.562;9.686;2022-07-23T07:48:45;97183.00;;;27.00
56286;BMP180;42191;47.562;9.686;2022-07-23T07:51:11;97178.00;;;26.90
56286;BMP180;42191;47.562;9.686;2022-07-23T07:53:37;97180.00;;;26.90
56286;BMP180;42191;47.562;9.686;2022-07-23T07:56:03;97185.00;;;26.90
56286;BMP180;42191;47.562;9.686;2022-07-23T07:58:29;97183.00;;;26.90
56286;BMP180;42191;47.562;9.686;2022-07-23T08:00:56;97193.00;;;26.80
56286;BMP180;42191;47.562;9.686;2022-07-23T08:03:22;97205.00;;;26.80
56286;BMP180;42191;47.562;9.686;2022-07-23T08:05:48;97194.00;;;26.80
56286;BMP180;42191;47.562;9.686;2022-07-23T08:08:14;97194.00;;;26.80
56286;BMP180;42191;47.562;9.686;2022-07-23T08:10:41;97192.00;;;26.80
56286;BMP180;42191;47.562;9.686;2022-07-23T08:13:07;97197.00;;;26.80
56286;BMP180;42191;47.562;9.686;2022-07-23T08:15:33;97195.00;;;26.80
56286;BMP180;42191;47.562;9.686;2022-07-23T08:17:59;97195.00;;;26.90
56286;BMP180;42191;47.562;9.686;2022-07-23T08:20:26;97195.00;;;26.90
56286;BMP180;42191;47.562;9.686;2022-07-23T08:27:49;97192.00;;;27.10
56286;BMP180;42191;47.562;9.686;2022-07-23T08:30:16;97201.00;;;27.20
56286;BMP180;42191;47.562;9.686;2022-07-23T08:33:10;97206.00;;;27.30
56286;BMP180;42191;47.562;9.686;2022-07-23T08:35:47;97213.00;;;27.40
56286;BMP180;42191;47.562;9.686;2022-07-23T08:38:16;97221.00;;;27.50
56286;BMP180;42191;47.562;9.686;2022-07-23T08:40:46;97199.00;;;27.60
56286;BMP180;42191;47.562;9.686;2022-07-23T08:43:15;97200.00;;;27.70
56286;BMP180;42191;47.562;9.686;2022-07-23T08:45:43;97203.00;;;27.80
56286;BMP180;42191;47.562;9.686;2022-07-23T08:48:15;97202.00;;;27.80
56286;BMP180;42191;47.562;9.686;2022-07-23T08:50:47;97206.00;;;27.80
56286;BMP180;42191;47.562;9.686;2022-07-23T08:53:15;97199.00;;;27.80
56286;BMP180;42191;47.562;9.686;2022-07-23T08:55:44;97202.00;;;27.70
56286;BMP180;42191;47.562;9.686;2022-07-23T08:58:12;97211.00;;;27.70
56286;BMP180;42191;47.562;9.686;2022-07-23T09:00:38;97218.00;;;27.70
56286;BMP180;42191;47.562;9.686;2022-07-23T09:03:05;97203.00;;;27.70
56286;BMP180;42191;47.562;9.686;2022-07-23T09:05:31;97183.00;;;27.70
56286;BMP180;42191;47.562;9.686;2022-07-23T09:11:04;97188.00;;;27.70
56286;BMP180;42191;47.562;9.686;2022-07-23T09:13:47;97177.00;;;27.80
56286;BMP180;42191;47.562;9.686;2022-07-23T09:16:25;97188.00;;;27.80
56286;BMP180;42191;47.562;9.686;2022-07-23T09:19:06;97172.00;;;27.80
56286;BMP180;42191;47.562;9.686;2022-07-23T09:21:33;97176.00;;;27.90
56286;BMP180;42191;47.562;9.686;2022-07-23T09:26:45;97171.00;;;27.90
56286;BMP180;42191;47.562;9.686;2022-07-23T09:29:23;97177.00;;;27.90
56286;BMP180;42191;47.562;9.686;2022-07-23T09:31:55;97167.00;;;27.90
56286;BMP180;42191;47.562;9.686;2022-07-23T09:34:30;97169.00;;;27.90
56286;BMP180;42191;47.562;9.686;2022-07-23T09:37:09;97184.00;;;28.00
56286;BMP180;42191;47.562;9.686;2022-07-23T09:39:36;97181.00;;;28.00
56286;BMP180;42191;47.562;9.686;2022-07-23T09:42:20;97180.00;;;28.00
56286;BMP180;42191;47.562;9.686;2022-07-23T09:44:51;97181.00;;;28.00
56286;BMP180;42191;47.562;9.686;2022-07-23T09:47:18;97173.00;;;28.00
56286;BMP180;42191;47.562;9.686;2022-07-23T09:50:07;97178.00;;;28.00
56286;BMP180;42191;47.562;9.686;2022-07-23T09:52:46;97181.00;;;28.00
56286;BMP180;42191;47.562;9.686;2022-07-23T09:55:14;97180.00;;;28.10
56286;BMP180;42191;47.562;9.686;2022-07-23T09:57:44;97189.00;;;28.10
56286;BMP180;42191;47.562;9.686;2022-07-23T10:00:11;97192.00;;;28.20
56286;BMP180;42191;47.562;9.686;2022-07-23T10:02:39;97193.00;;;28.30
56286;BMP180;42191;47.562;9.686;2022-07-23T10:05:08;97187.00;;;28.30
56286;BMP180;42191;47.562;9.686;2022-07-23T10:07:37;97193.00;;;28.30
56286;BMP180;42191;47.562;9.686;2022-07-23T10:10:05;97195.00;;;28.30
56286;BMP180;42191;47.562;9.686;2022-07-23T10:12:31;97197.00;;;28.20
56286;BMP180;42191;47.562;9.686;2022-07-23T10:15:17;97179.00;;;28.20
56286;BMP180;42191;47.562;9.686;2022-07-23T10:17:43;97190.00;;;28.20
56286;BMP180;42191;47.562;9.686;2022-07-23T10:20:12;97195.00;;;28.20
56286;BMP180;42191;47.562;9.686;2022-07-23T10:22:50;97181.00;;;28.20
56286;BMP180;42191;47.562;9.686;2022-07-23T10:25:32;97185.00;;;28.20
56286;BMP180;42191;47.562;9.686;2022-07-23T10:31:05;97178.00;;;28.10
56286;BMP180;42191;47.562;9.686;2022-07-23T10:36:56;97171.00;;;28.00
56286;BMP180;42191;47.562;9.686;2022-07-23T10:39:24;97170.00;;;28.00
56286;BMP180;42191;47.562;9.686;2022-07-23T10:41:52;97177.00;;;28.00
56286;BMP180;42191;47.562;9.686;2022-07-23T10:44:20;97157.00;;;27.90
56286;BMP180;42191;47.562;9.686;2022-07-23T10:46:59;97172.00;;;27.90
56286;BMP180;42191;47.562;9.686;2022-07-23T10:49:34;97172.00;;;27.90
56286;BMP180;42191;47.562;9.686;2022-07-23T10:52:17;97171.00;;;27.80
56286;BMP180;42191;47.562;9.686;2022-07-23T10:54:46;97177.00;;;27.80
56286;BMP180;42191;47.562;9.686;2022-07-23T10:57:13;97176.00;;;27.80
56286;BMP180;42191;47.562;9.686;2022-07-23T11:02:47;97169.00;;;27.70
56286;BMP180;42191;47.562;9.686;2022-07-23T11:05:16;97168.00;;;27.80
56286;BMP180;42191;47.562;9.686;2022-07-23T11:10:35;97172.00;;;27.70
56286;BMP180;42191;47.562;9.686;2022-07-23T11:26:45;97176.00;;;27.70
56286;BMP180;42191;47.562;9.686;2022-07-23T11:32:02;97177.00;;;27.70
56286;BMP180;42191;47.562;9.686;2022-07-23T11:34:33;97183.00;;;27.80
56286;BMP180;42191;47.562;9.686;2022-07-23T11:37:01;97182.00;;;27.80
56286;BMP180;42191;47.562;9.686;2022-07-23T11:39:30;97186.00;;;27.80
56286;BMP180;42191;47.562;9.686;2022-07-23T11:41:57;97185.00;;;27.80
56286;BMP180;42191;47.562;9.686;2022-07-23T11:44:32;97187.00;;;27.80
56286;BMP180;42191;47.562;9.686;2022-07-23T11:47:04;97186.00;;;27.70
56286;BMP180;42191;47.562;9.686;2022-07-23T11:49:30;97188.00;;;27.60
56286;BMP180;42191;47.562;9.686;2022-07-23T11:52:14;97179.00;;;27.60
56286;BMP180;42191;47.562;9.686;2022-07-23T11:55:08;97178.00;;;27.60
56286;BMP180;42191;47.562;9.686;2022-07-23T11:57:40;97168.00;;;27.60
56286;BMP180;42191;47.562;9.686;2022-07-23T12:02:39;97174.00;;;27.60
56286;BMP180;42191;47.562;9.686;2022-07-23T12:05:07;97165.00;;;27.70
56286;BMP180;42191;47.562;9.686;2022-07-23T12:07:39;97167.00;;;27.70
56286;BMP180;42191;47.562;9.686;2022-07-23T12:12:49;97176.00;;;27.70
56286;BMP180;42191;47.562;9.686;2022-07-23T12:15:20;97168.00;;;27.80
56286;BMP180;42191;47.562;9.686;2022-07-23T12:17:48;97165.00;;;27.80
56286;BMP180;42191;47.562;9.686;2022-07-23T12:20:33;97160.00;;;27.90
56286;BMP180;42191;47.562;9.686;2022-07-23T12:23:05;97158.00;;;27.90
56286;BMP180;42191;47.562;9.686;2022-07-23T12:25:34;97151.00;;;28.00
56286;BMP180;42191;47.562;9.686;2022-07-23T12:28:21;97166.00;;;28.10
56286;BMP180;42191;47.562;9.686;2022-07-23T12:30:55;97162.00;;;28.10
56286;BMP180;42191;47.562;9.686;2022-07-23T12:33:32;97150.00;;;28.20
56286;BMP180;42191;47.562;9.686;2022-07-23T12:36:02;97157.00;;;28.20
56286;BMP180;42191;47.562;9.686;2022-07-23T12:38:44;97153.00;;;28.40
56286;BMP180;42191;47.562;9.686;2022-07-23T12:41:12;97147.00;;;28.50
56286;BMP180;42191;47.562;9.686;2022-07-23T12:43:43;97153.00;;;28.70
56286;BMP180;42191;47.562;9.686;2022-07-23T12:46:27;97149.00;;;29.00
56286;BMP180;42191;47.562;9.686;2022-07-23T12:48:54;97150.00;;;29.30
56286;BMP180;42191;47.562;9.686;2022-07-23T12:51:23;97148.00;;;29.60
56286;BMP180;42191;47.562;9.686;2022-07-23T12:53:55;97145.00;;;29.90
56286;BMP180;42191;47.562;9.686;2022-07-23T12:59:13;97152.00;;;30.40
56286;BMP180;42191;47.562;9.686;2022-07-23T13:01:54;97151.00;;;30.50
56286;BMP180;42191;47.562;9.686;2022-07-23T13:04:23;97139.00;;;30.70
56286;BMP180;42191;47.562;9.686;2022-07-23T13:06:54;97144.00;;;30.80
56286;BMP180;42191;47.562;9.686;2022-07-23T13:09:23;97140.00;;;31.10
56286;BMP180;42191;47.562;9.686;2022-07-23T13:11:50;97146.00;;;31.30
56286;BMP180;42191;47.562;9.686;2022-07-23T13:14:18;97147.00;;;31.50
56286;BMP180;42191;47.562;9.686;2022-07-23T13:16:45;97154.00;;;31.80
56286;BMP180;42191;47.562;9.686;2022-07-23T13:19:12;97148.00;;;32.20
56286;BMP180;42191;47.562;9.686;2022-07-23T13:21:39;97146.00;;;32.80
56286;BMP180;42191;47.562;9.686;2022-07-23T13:24:07;97139.00;;;33.30
56286;BMP180;42191;47.562;9.686;2022-07-23T13:26:33;97137.00;;;33.90
56286;BMP180;42191;47.562;9.686;2022-07-23T13:28:59;97143.00;;;34.60
56286;BMP180;42191;47.562;9.686;2022-07-23T13:31:25;97148.00;;;35.40
56286;BMP180;42191;47.562;9.686;2022-07-23T13:33:51;97132.00;;;36.30
56286;BMP180;42191;47.562;9.686;2022-07-23T13:36:17;97136.00;;;37.00
56286;BMP180;42191;47.562;9.686;2022-07-23T13:38:43;97125.00;;;37.50
56286;BMP180;42191;47.562;9.686;2022-07-23T13:41:10;97131.00;;;38.10
56286;BMP180;42191;47.562;9.686;2022-07-23T13:43:36;97126.00;;;38.80
56286;BMP180;42191;47.562;9.686;2022-07-23T13:46:02;97126.00;;;39.30
56286;BMP180;42191;47.562;9.686;2022-07-23T13:48:28;97125.00;;;39.70
56286;BMP180;42191;47.562;9.686;2022-07-23T13:50:55;97120.00;;;40.00
56286;BMP180;42191;47.562;9.686;2022-07-23T13:53:23;97121.00;;;40.30
56286;BMP180;42191;47.562;9.686;2022-07-23T13:55:51;97114.00;;;40.70
56286;BMP180;42191;47.562;9.686;2022-07-23T13:58:18;97113.00;;;41.20
56286;BMP180;42191;47.562;9.686;2022-07-23T14:00:51;97115.00;;;41.50
56286;BMP180;42191;47.562;9.686;2022-07-23T14:03:18;97112.00;;;41.90
56286;BMP180;42191;47.562;9.686;2022-07-23T14:05:45;97115.00;;;42.30
56286;BMP180;42191;47.562;9.686;2022-07-23T14:08:11;97124.00;;;42.50
56286;BMP180;42191;47.562;9.686;2022-07-23T14:10:37;97126.00;;;42.50
56286;BMP180;42191;47.562;9.686;2022-07-23T14:13:03;97128.00;;;42.60
56286;BMP180;42191;47.562;9.686;2022-07-23T14:15:31;97126.00;;;42.80
56286;BMP180;42191;47.562;9.686;2022-07-23T14:17:58;97132.00;;;42.90
56286;BMP180;42191;47.562;9.686;2022-07-23T14:20:24;97130.00;;;42.90
56286;BMP180;42191;47.562;9.686;2022-07-23T14:22:51;97122.00;;;43.10
56286;BMP180;42191;47.562;9.686;2022-07-23T14:25:17;97129.00;;;43.50
56286;BMP180;42191;47.562;9.686;2022-07-23T14:27:44;97130.00;;;43.90
56286;BMP180;42191;47.562;9.686;2022-07-23T14:30:11;97135.00;;;44.20
56286;BMP180;42191;47.562;9.686;2022-07-23T14:32:38;97126.00;;;44.20
56286;BMP180;42191;47.562;9.686;2022-07-23T14:35:05;97123.00;;;44.00
56286;BMP180;42191;47.562;9.686;2022-07-23T14:37:31;97127.00;;;44.00
56286;BMP180;42191;47.562;9.686;2022-07-23T14:39:57;97124.00;;;43.90
56286;BMP180;42191;47.562;9.686;2022-07-23T14:42:23;97122.00;;;43.80
56286;BMP180;42191;47.562;9.686;2022-07-23T14:44:50;97130.00;;;43.60
56286;BMP180;42191;47.562;9.686;2022-07-23T14:47:16;97124.00;;;43.30
56286;BMP180;42191;47.562;9.686;2022-07-23T14:49:42;97120.00;;;43.00
56286;BMP180;42191;47.562;9.686;2022-07-23T14:52:08;97118.00;;;42.80
56286;BMP180;42191;47.562;9.686;2022-07-23T14:54:34;97119.00;;;42.60
56286;BMP180;42191;47.562;9.686;2022-07-23T14:57:02;97111.00;;;42.60
56286;BMP180;42191;47.562;9.686;2022-07-23T14:59:28;97106.00;;;42.60